Time;durP1;ratioP1;P1;durP2;ratioP2;P2;SDS_P1;SDS_P2;PMS_P1;PMS_P2;Temp;Humidity;BMP_temperature;BMP_pressure;BME280_temperature;BME280_humidity;BME280_pressure;Samples;Min_cycle;Max_cycle;Signal;HPM_P1;HPM_P2
2022/12/23 00:00:13;;;;;;;7.18;3.05;;;8.20;99.90;;;;;;6406424;23;20007;-69
2022/12/23 00:02:54;;;;;;;8.02;3.53;;;8.00;99.90;;;;;;6435835;22;20014;-68
2022/12/23 00:05:28;;;;;;;7.88;3.75;;;7.70;99.90;;;;;;6373210;23;20313;-69
2022/12/23 00:08:05;;;;;;;6.93;3.10;;;7.60;99.90;;;;;;6402998;23;20001;-69
2022/12/23 00:10:39;;;;;;;10.27;3.28;;;7.40;99.90;;;;;;6412138;23;19988;-68
2022/12/23 00:16:06;;;;;;;7.90;4.40;;;7.20;99.90;;;;;;6437531;23;20017;-68
2022/12/23 00:18:38;;;;;;;7.40;3.88;;;7.10;99.90;;;;;;6439106;23;19997;-68
2022/12/23 00:21:12;;;;;;;9.40;4.00;;;7.00;99.90;;;;;;6439145;23;20000;-69
2022/12/23 00:23:48;;;;;;;7.53;3.42;;;6.90;99.90;;;;;;6385342;23;20005;-69
2022/12/23 00:26:26;;;;;;;13.10;4.40;;;6.90;99.90;;;;;;6436526;23;20007;-69
2022/12/23 00:28:57;;;;;;;13.07;4.18;;;6.70;99.90;;;;;;6413427;23;20008;-68
2022/12/23 00:31:28;;;;;;;9.63;4.63;;;6.50;99.90;;;;;;6413724;23;20008;-68
2022/12/23 00:34:02;;;;;;;8.30;4.82;;;6.40;99.90;;;;;;6414655;23;20376;-68
2022/12/23 00:36:37;;;;;;;13.15;5.78;;;6.20;99.90;;;;;;6413176;23;20015;-69
2022/12/23 00:45:14;;;;;;;10.05;3.08;;;6.00;99.90;;;;;;6436562;23;20007;-68
2022/12/23 00:50:40;;;;;;;7.40;3.53;;;6.00;99.90;;;;;;6414451;23;19988;-69
2022/12/23 00:53:11;;;;;;;7.30;3.97;;;6.00;99.90;;;;;;6414322;23;20445;-69
2022/12/23 00:55:46;;;;;;;9.25;3.63;;;5.90;99.90;;;;;;6413193;22;20019;-68
2022/12/23 00:58:21;;;;;;;4.30;2.70;;;5.70;99.90;;;;;;6413073;23;20000;-69
2022/12/23 01:06:35;;;;;;;5.55;3.10;;;5.20;99.90;;;;;;6397529;23;20023;-64
2022/12/23 01:09:08;;;;;;;13.55;7.88;;;5.10;99.90;;;;;;6362540;23;20001;-66
2022/12/23 01:11:42;;;;;;;12.40;5.90;;;5.10;99.90;;;;;;6359870;23;20007;-64
2022/12/23 01:14:14;;;;;;;;;;;5.00;99.90;;;;;;6409637;23;20005;-67
2022/12/23 01:16:48;;;;;;;8.95;3.30;;;5.00;99.90;;;;;;6386704;23;19911;-64
2022/12/23 01:19:22;;;;;;;10.25;3.80;;;4.90;99.90;;;;;;6409792;23;20023;-66
2022/12/23 01:21:56;;;;;;;9.23;3.90;;;4.80;99.90;;;;;;6383581;23;20000;-64
2022/12/23 01:24:34;;;;;;;8.63;3.55;;;4.80;99.90;;;;;;6362158;23;20178;-65
2022/12/23 01:27:16;;;;;;;10.80;4.18;;;4.80;99.90;;;;;;6385294;23;20027;-66
2022/12/23 01:29:50;;;;;;;8.27;3.58;;;4.70;99.90;;;;;;6386559;23;20024;-65
2022/12/23 01:32:27;;;;;;;6.63;3.85;;;4.70;99.90;;;;;;6382401;23;20001;-65
2022/12/23 01:34:58;;;;;;;12.82;4.07;;;4.80;99.90;;;;;;6384531;23;20013;-66
2022/12/23 01:37:32;;;;;;;;;;;4.80;99.90;;;;;;6364609;23;19997;-67
2022/12/23 01:40:10;;;;;;;7.55;3.95;;;4.80;99.90;;;;;;6412562;23;19908;-68
2022/12/23 01:42:45;;;;;;;6.38;3.08;;;4.80;99.90;;;;;;6363512;23;20004;-66
2022/12/23 01:45:26;;;;;;;8.80;3.30;;;4.90;99.90;;;;;;6359927;23;19993;-66
2022/12/23 01:48:08;;;;;;;10.57;3.10;;;4.90;99.90;;;;;;6361662;23;20001;-66
2022/12/23 01:50:53;;;;;;;8.98;2.92;;;4.80;99.90;;;;;;6361407;23;20306;-66
2022/12/23 01:53:37;;;;;;;7.72;2.85;;;4.90;99.90;;;;;;6380876;23;19997;-66
2022/12/23 01:56:13;;;;;;;8.00;3.00;;;5.00;99.90;;;;;;6359926;23;20044;-66
2022/12/23 01:58:53;;;;;;;7.28;2.40;;;5.10;99.90;;;;;;6409452;23;20476;-66
2022/12/23 02:04:23;;;;;;;3.45;2.60;;;5.30;99.90;;;;;;6393846;22;19999;-67
2022/12/23 02:09:48;;;;;;;4.22;2.63;;;5.30;99.90;;;;;;6411962;23;20008;-65
2022/12/23 02:12:33;;;;;;;5.03;2.80;;;5.30;99.90;;;;;;6386546;23;20000;-68
2022/12/23 02:18:32;;;;;;;4.03;2.47;;;5.40;99.90;;;;;;6389396;23;19993;-66
2022/12/23 02:21:47;;;;;;;5.65;2.25;;;5.40;99.90;;;;;;6363250;23;20522;-67
2022/12/23 02:24:34;;;;;;;7.05;3.03;;;5.50;99.90;;;;;;6297045;23;20130;-68
2022/12/23 02:27:14;;;;;;;9.75;2.83;;;5.50;99.90;;;;;;6381777;23;20004;-67
2022/12/23 02:30:26;;;;;;;7.18;2.95;;;5.50;99.90;;;;;;6358067;23;20000;-67
2022/12/23 02:33:28;;;;;;;5.82;2.47;;;5.60;99.90;;;;;;6384326;23;19997;-66
2022/12/23 02:36:19;;;;;;;3.72;1.80;;;5.60;99.90;;;;;;6385297;23;20013;-67
2022/12/23 02:39:01;;;;;;;5.97;1.95;;;5.60;99.90;;;;;;6361045;23;20621;-65
2022/12/23 02:41:53;;;;;;;5.18;1.98;;;5.50;99.90;;;;;;6361295;23;20001;-66
2022/12/23 02:44:26;;;;;;;7.88;2.22;;;5.50;99.90;;;;;;6408395;23;20001;-64
2022/12/23 02:47:08;;;;;;;8.60;2.55;;;5.40;99.90;;;;;;6385135;23;20130;-67
2022/12/23 02:49:46;;;;;;;15.77;2.70;;;5.30;99.90;;;;;;6412680;23;20031;-67
2022/12/23 02:52:31;;;;;;;4.55;2.80;;;5.40;99.90;;;;;;6358266;23;20485;-65
2022/12/23 02:55:05;;;;;;;;;;;5.50;99.90;;;;;;6360003;23;20044;-67
2022/12/23 02:57:47;;;;;;;7.40;2.20;;;5.50;99.90;;;;;;6409071;23;19896;-66
2022/12/23 03:00:22;;;;;;;5.88;3.00;;;5.50;99.90;;;;;;6360407;23;20019;-68
2022/12/23 03:02:56;;;;;;;10.63;2.90;;;5.60;99.90;;;;;;6407588;23;20009;-67
2022/12/23 03:05:38;;;;;;;7.60;2.75;;;5.80;99.90;;;;;;6376456;23;20212;-65
2022/12/23 03:08:31;;;;;;;6.65;3.13;;;5.90;99.90;;;;;;6385238;23;19997;-65
2022/12/23 03:11:08;;;;;;;5.13;2.55;;;5.90;99.90;;;;;;6384513;23;20428;-67
2022/12/23 03:14:04;;;;;;;7.85;3.10;;;5.90;99.90;;;;;;6382540;23;20005;-65
2022/12/23 03:17:07;;;;;;;2.95;1.83;;;5.90;99.90;;;;;;6385342;23;20013;-67
2022/12/23 03:19:55;;;;;;;11.23;3.58;;;5.90;99.90;;;;;;6381943;23;20001;-66
2022/12/23 03:22:37;;;;;;;7.28;3.05;;;5.90;99.90;;;;;;6384441;23;20001;-67
2022/12/23 03:25:29;;;;;;;5.88;3.05;;;5.90;99.90;;;;;;6389681;23;20031;-63
2022/12/23 03:28:16;;;;;;;9.68;3.65;;;6.00;99.90;;;;;;6414448;23;20072;-67
2022/12/23 03:30:56;;;;;;;10.50;3.70;;;5.90;99.90;;;;;;6389548;23;20401;-65
2022/12/23 03:33:36;;;;;;;8.13;2.72;;;5.80;99.90;;;;;;6363880;23;20064;-67
2022/12/23 03:36:42;;;;;;;7.50;2.67;;;5.80;99.90;;;;;;6389582;23;20427;-67
2022/12/23 03:39:20;;;;;;;12.82;3.78;;;5.80;99.90;;;;;;6412956;23;19989;-67
2022/12/23 03:42:07;;;;;;;6.45;3.08;;;5.60;99.90;;;;;;6391358;23;20065;-64
2022/12/23 03:44:49;;;;;;;9.02;3.10;;;5.60;99.90;;;;;;6413633;23;20069;-67
2022/12/23 03:47:31;;;;;;;10.98;3.42;;;5.50;99.90;;;;;;6389747;23;20523;-66
2022/12/23 03:50:10;;;;;;;9.95;3.63;;;5.50;99.90;;;;;;6390044;23;20001;-67
2022/12/23 03:52:57;;;;;;;7.97;3.00;;;5.50;99.90;;;;;;6414040;23;20000;-66
2022/12/23 03:55:48;;;;;;;9.75;3.42;;;5.60;99.90;;;;;;6363519;22;20023;-66
2022/12/23 03:58:42;;;;;;;6.80;3.90;;;5.60;99.90;;;;;;6391896;23;20056;-67
2022/12/23 04:01:47;;;;;;;9.90;2.83;;;5.50;99.90;;;;;;6390030;23;20443;-65
2022/12/23 04:04:52;;;;;;;9.55;3.97;;;5.50;99.90;;;;;;6390276;23;19997;-66
2022/12/23 04:07:47;;;;;;;10.73;4.72;;;5.50;99.90;;;;;;6374954;22;20019;-66
2022/12/23 04:10:27;;;;;;;9.63;4.50;;;5.60;99.90;;;;;;6381374;23;20004;-63
2022/12/23 04:13:01;;;;;;;13.68;5.20;;;5.50;99.90;;;;;;6390845;23;20003;-64
2022/12/23 04:15:39;;;;;;;11.30;4.63;;;5.50;99.90;;;;;;6363712;23;20015;-69
2022/12/23 04:18:15;;;;;;;7.07;4.10;;;5.60;99.90;;;;;;6389441;23;20008;-66
2022/12/23 04:20:48;;;;;;;10.20;4.65;;;5.50;99.90;;;;;;6388456;23;20000;-66
2022/12/23 04:23:22;;;;;;;12.43;5.18;;;5.50;99.90;;;;;;6389965;23;20024;-68
2022/12/23 04:25:53;;;;;;;15.80;5.47;;;5.50;99.90;;;;;;6389413;23;20001;-68
2022/12/23 04:28:29;;;;;;;11.27;4.43;;;5.50;99.90;;;;;;6389489;23;19996;-65
2022/12/23 04:31:03;;;;;;;10.32;3.88;;;5.50;99.90;;;;;;6364432;23;20003;-67
2022/12/23 04:33:37;;;;;;;12.57;4.23;;;5.40;99.90;;;;;;6415236;23;20001;-67
2022/12/23 04:36:08;;;;;;;15.38;4.22;;;5.40;99.90;;;;;;6342653;23;20013;-64
2022/12/23 04:38:42;;;;;;;7.53;4.13;;;5.40;99.90;;;;;;6367490;23;20073;-64
2022/12/23 04:41:22;;;;;;;10.07;3.50;;;5.30;99.90;;;;;;6364419;23;20085;-64
2022/12/23 04:43:57;;;;;;;11.52;3.88;;;5.40;99.90;;;;;;6416128;23;20001;-65
2022/12/23 04:46:29;;;;;;;9.90;3.90;;;5.40;99.90;;;;;;6391220;23;20076;-66
2022/12/23 04:49:03;;;;;;;11.32;4.10;;;5.40;99.90;;;;;;6392114;23;20001;-67
2022/12/23 04:51:36;;;;;;;6.25;4.18;;;5.40;99.90;;;;;;6388861;23;19993;-67
2022/12/23 04:54:08;;;;;;;11.60;4.30;;;5.40;99.90;;;;;;6391230;23;19989;-67
2022/12/23 04:56:44;;;;;;;9.77;4.40;;;5.50;99.90;;;;;;6390950;23;20016;-67
2022/12/23 04:59:15;;;;;;;6.55;4.43;;;5.50;99.90;;;;;;6368642;23;20352;-69
2022/12/23 05:01:47;;;;;;;15.43;6.75;;;5.50;99.90;;;;;;6390665;23;20009;-67
2022/12/23 05:04:21;;;;;;;13.23;5.60;;;5.40;99.90;;;;;;6378052;22;20001;-64
2022/12/23 05:06:57;;;;;;;11.87;5.73;;;5.20;99.90;;;;;;6391382;23;20065;-66
2022/12/23 05:09:28;;;;;;;9.27;3.78;;;5.10;99.90;;;;;;6390032;23;20306;-66
2022/12/23 05:12:00;;;;;;;7.07;3.78;;;5.20;99.90;;;;;;6391325;23;20001;-66
2022/12/23 05:14:33;;;;;;;6.45;3.78;;;5.30;99.90;;;;;;6390839;23;20005;-65
2022/12/23 05:17:10;;;;;;;10.73;4.65;;;5.30;99.90;;;;;;6367387;23;20009;-67
2022/12/23 05:19:41;;;;;;;10.13;3.95;;;5.40;99.90;;;;;;6366020;23;20060;-67
2022/12/23 05:22:13;;;;;;;14.57;3.97;;;5.50;99.90;;;;;;6391300;23;19999;-65
2022/12/23 05:24:45;;;;;;;7.85;4.55;;;5.50;99.90;;;;;;6392018;23;20011;-67
2022/12/23 05:27:18;;;;;;;10.43;4.38;;;5.60;99.90;;;;;;6365911;23;20234;-65
2022/12/23 05:29:54;;;;;;;14.55;4.63;;;5.80;99.90;;;;;;6390452;23;20539;-67
2022/12/23 05:32:26;;;;;;;9.32;4.07;;;5.80;99.90;;;;;;6393147;23;20048;-66
2022/12/23 05:35:00;;;;;;;9.38;3.63;;;5.90;99.90;;;;;;6367758;23;20011;-66
2022/12/23 05:37:37;;;;;;;10.50;4.97;;;5.90;99.90;;;;;;6393667;23;20060;-65
2022/12/23 05:40:14;;;;;;;10.80;4.15;;;5.90;99.90;;;;;;6390035;23;20048;-67
2022/12/23 05:42:47;;;;;;;7.47;3.75;;;5.90;99.90;;;;;;6389862;23;19997;-67
2022/12/23 05:45:24;;;;;;;8.50;4.20;;;5.80;99.90;;;;;;6407708;22;20080;-70
2022/12/23 05:48:00;;;;;;;9.57;5.03;;;5.70;99.90;;;;;;6375090;23;20291;-66
2022/12/23 05:50:36;;;;;;;8.75;4.90;;;5.60;99.90;;;;;;6370264;23;20119;-64
2022/12/23 05:53:07;;;;;;;11.45;5.53;;;5.60;99.90;;;;;;6366992;23;19993;-67
2022/12/23 05:55:41;;;;;;;13.60;4.93;;;5.50;99.90;;;;;;6360486;23;20013;-66
2022/12/23 05:58:14;;;;;;;12.65;6.18;;;5.60;99.90;;;;;;6356257;23;20056;-64
2022/12/23 06:00:47;;;;;;;17.95;6.20;;;5.60;99.90;;;;;;6366943;23;20062;-66
2022/12/23 06:03:18;;;;;;;14.53;5.57;;;5.50;99.90;;;;;;6392019;23;19993;-67
2022/12/23 06:05:51;;;;;;;10.43;4.80;;;5.50;99.90;;;;;;6405701;22;20080;-65
2022/12/23 06:08:24;;;;;;;9.98;4.95;;;5.60;99.90;;;;;;6396696;23;20128;-66
2022/12/23 06:10:58;;;;;;;6.40;4.85;;;5.60;99.90;;;;;;6391797;23;20007;-68
2022/12/23 06:13:32;;;;;;;10.90;5.47;;;5.60;99.90;;;;;;6365551;23;20097;-68
2022/12/23 06:16:09;;;;;;;8.87;5.57;;;5.60;99.90;;;;;;6425858;23;20435;-67
2022/12/23 06:18:47;;;;;;;9.40;5.72;;;5.60;99.90;;;;;;6365921;23;20324;-67
2022/12/23 06:21:19;;;;;;;12.52;6.20;;;5.60;99.90;;;;;;6390739;23;20004;-64
2022/12/23 06:23:51;;;;;;;8.32;5.43;;;5.70;99.90;;;;;;6387056;22;20017;-67
2022/12/23 06:26:25;;;;;;;12.73;5.20;;;5.70;99.90;;;;;;6390471;23;20011;-65
2022/12/23 06:29:01;;;;;;;14.15;6.57;;;5.60;99.90;;;;;;6391278;23;20333;-67
2022/12/23 06:31:38;;;;;;;11.52;5.90;;;5.60;99.90;;;;;;6414015;23;20007;-67
2022/12/23 06:34:12;;;;;;;13.30;5.90;;;5.50;99.90;;;;;;6363577;23;20020;-64
2022/12/23 06:36:43;;;;;;;12.55;6.07;;;5.40;99.90;;;;;;6365325;23;20005;-65
2022/12/23 06:39:17;;;;;;;8.68;5.10;;;5.40;99.90;;;;;;6391686;23;20049;-67
2022/12/23 06:41:51;;;;;;;15.80;5.95;;;5.40;99.90;;;;;;6415200;23;19993;-68
2022/12/23 06:44:22;;;;;;;10.93;5.53;;;5.40;99.90;;;;;;6390164;23;19999;-66
2022/12/23 06:46:54;;;;;;;15.25;6.43;;;5.40;99.90;;;;;;6388845;23;20035;-67
2022/12/23 06:49:27;;;;;;;19.75;6.32;;;5.40;99.90;;;;;;6414703;23;20000;-64
2022/12/23 06:51:59;;;;;;;16.38;6.25;;;5.50;99.90;;;;;;6365089;23;20033;-65
2022/12/23 06:54:30;;;;;;;12.52;7.07;;;5.40;99.90;;;;;;6365319;23;20024;-67
2022/12/23 06:57:06;;;;;;;15.18;6.05;;;5.40;99.90;;;;;;6364508;23;20013;-66
2022/12/23 06:59:42;;;;;;;13.15;6.95;;;5.30;99.90;;;;;;6392322;23;19999;-65
2022/12/23 07:02:17;;;;;;;14.60;7.10;;;5.30;99.90;;;;;;6388320;23;20000;-66
2022/12/23 07:04:48;;;;;;;14.38;7.47;;;5.20;99.90;;;;;;6399961;22;20005;-69
2022/12/23 07:07:19;;;;;;;14.68;7.88;;;5.20;99.90;;;;;;6370342;23;20087;-66
2022/12/23 07:09:53;;;;;;;15.02;8.05;;;5.20;99.90;;;;;;6391597;23;20496;-66
2022/12/23 07:12:24;;;;;;;15.77;7.80;;;5.30;99.90;;;;;;6390653;23;20005;-66
2022/12/23 07:14:57;;;;;;;23.08;7.18;;;5.40;99.90;;;;;;6415754;23;20007;-64
2022/12/23 07:17:31;;;;;;;12.95;7.00;;;5.40;99.90;;;;;;6390806;23;20208;-69
2022/12/23 07:20:03;;;;;;;17.02;7.47;;;5.40;99.90;;;;;;6388637;23;20005;-67
2022/12/23 07:22:35;;;;;;;17.98;7.60;;;5.50;99.90;;;;;;6363979;23;20107;-65
2022/12/23 07:25:06;;;;;;;23.10;8.73;;;5.50;99.90;;;;;;6391519;23;20072;-69
2022/12/23 07:27:38;;;;;;;19.25;7.72;;;5.50;99.90;;;;;;6358826;22;20099;-67
2022/12/23 07:30:10;;;;;;;16.42;7.60;;;5.30;99.90;;;;;;6374113;23;20013;-65
2022/12/23 07:32:41;;;;;;;16.42;8.27;;;5.30;99.90;;;;;;6388312;23;20060;-68
2022/12/23 07:35:12;;;;;;;13.77;8.73;;;5.30;99.90;;;;;;6389236;23;19993;-67
2022/12/23 07:37:43;;;;;;;14.95;8.00;;;5.20;99.90;;;;;;6385456;22;20063;-66
2022/12/23 07:40:15;;;;;;;16.30;8.57;;;5.20;99.90;;;;;;6360332;23;20008;-69
2022/12/23 07:42:56;;;;;;;14.70;8.60;;;5.30;99.90;;;;;;6387395;23;19997;-66
2022/12/23 07:45:28;;;;;;;18.83;8.55;;;5.40;99.90;;;;;;6395767;23;20013;-67
2022/12/23 07:48:00;;;;;;;19.25;8.48;;;5.60;99.90;;;;;;6363364;23;19993;-72
2022/12/23 07:50:33;;;;;;;11.93;7.60;;;5.60;99.90;;;;;;6337285;23;20179;-68
2022/12/23 07:53:08;;;;;;;16.40;8.67;;;5.70;99.90;;;;;;6384611;23;20008;-66
2022/12/23 07:55:39;;;;;;;12.63;9.07;;;5.90;99.90;;;;;;6330876;23;20309;-68
2022/12/23 07:58:10;;;;;;;15.10;8.65;;;5.80;99.90;;;;;;6395126;23;19997;-66
2022/12/23 08:00:44;;;;;;;11.93;8.80;;;5.90;99.90;;;;;;6391799;23;20011;-64
2022/12/23 08:03:18;;;;;;;15.45;9.45;;;5.90;99.90;;;;;;6385270;23;20001;-66
2022/12/23 08:06:01;;;;;;;13.10;8.63;;;6.00;99.90;;;;;;6372120;22;20030;-66
2022/12/23 08:08:36;;;;;;;13.07;8.38;;;6.10;99.90;;;;;;6371777;23;20013;-68
2022/12/23 08:11:13;;;;;;;16.52;8.45;;;6.00;99.90;;;;;;6377800;23;20018;-68
2022/12/23 08:13:47;;;;;;;12.13;8.00;;;6.00;99.90;;;;;;6403333;23;20050;-67
2022/12/23 08:16:18;;;;;;;17.20;8.15;;;6.10;99.90;;;;;;6363217;23;20013;-70
2022/12/23 08:18:49;;;;;;;14.65;8.35;;;6.20;99.90;;;;;;6359747;23;20001;-67
2022/12/23 08:21:21;;;;;;;14.13;8.73;;;6.30;99.90;;;;;;6361959;23;20001;-66
2022/12/23 08:23:52;;;;;;;16.92;8.82;;;6.40;99.90;;;;;;6388493;23;19999;-68
2022/12/23 08:26:26;;;;;;;15.55;8.38;;;6.40;99.90;;;;;;6412935;23;20001;-66
2022/12/23 08:28:58;;;;;;;17.80;8.65;;;6.60;99.90;;;;;;6362555;23;20019;-72
2022/12/23 08:31:30;;;;;;;13.25;7.47;;;6.60;99.90;;;;;;6360630;23;19997;-67
2022/12/23 08:34:04;;;;;;;17.98;8.40;;;6.50;99.90;;;;;;6412820;23;20000;-67
2022/12/23 08:36:36;;;;;;;14.75;8.88;;;6.50;99.90;;;;;;6364308;23;20005;-65
2022/12/23 08:39:12;;;;;;;21.77;9.43;;;6.40;99.90;;;;;;6363981;23;20003;-67
2022/12/23 08:41:46;;;;;;;14.27;8.48;;;6.30;99.90;;;;;;6389823;23;20004;-67
2022/12/23 08:44:20;;;;;;;16.75;9.07;;;6.40;99.90;;;;;;6364328;23;20324;-68
2022/12/23 08:46:55;;;;;;;15.68;8.23;;;6.40;99.90;;;;;;6364017;23;20001;-67
2022/12/23 08:49:26;;;;;;;;;;;6.40;99.90;;;;;;6390199;23;20057;-69
2022/12/23 08:51:57;;;;;;;16.95;9.35;;;6.50;99.90;;;;;;6388377;23;19910;-67
2022/12/23 08:54:32;;;;;;;16.23;9.93;;;6.60;99.90;;;;;;6388731;23;20189;-65
2022/12/23 08:57:05;;;;;;;17.35;9.50;;;6.80;99.90;;;;;;6363146;23;19997;-68
2022/12/23 08:59:39;;;;;;;15.53;8.83;;;7.00;99.90;;;;;;6389190;23;20008;-69
2022/12/23 09:02:12;;;;;;;14.13;8.48;;;7.00;99.90;;;;;;6386011;23;20201;-65
2022/12/23 09:04:47;;;;;;;18.88;9.75;;;7.00;99.90;;;;;;6356170;23;20017;-68
2022/12/23 09:07:21;;;;;;;13.15;8.95;;;6.90;99.90;;;;;;6363796;23;20155;-66
2022/12/23 09:09:54;;;;;;;14.65;9.30;;;7.00;99.90;;;;;;6414317;23;20308;-67
2022/12/23 09:12:26;;;;;;;16.63;10.30;;;7.00;99.90;;;;;;6389304;23;20608;-65
2022/12/23 09:14:57;;;;;;;18.58;10.30;;;7.20;99.90;;;;;;6391118;23;20044;-68
2022/12/23 09:17:31;;;;;;;16.02;10.68;;;7.20;99.90;;;;;;6389149;23;20019;-68
2022/12/23 09:20:06;;;;;;;17.73;10.35;;;7.40;99.90;;;;;;6391575;23;20044;-65
2022/12/23 09:22:37;;;;;;;16.33;8.85;;;7.50;99.90;;;;;;6389143;23;20280;-67
2022/12/23 09:25:13;;;;;;;14.65;9.55;;;7.50;99.90;;;;;;6401755;23;20082;-67
2022/12/23 09:27:46;;;;;;;15.90;9.20;;;7.20;99.90;;;;;;6390034;23;19999;-66
2022/12/23 09:30:25;;;;;;;18.67;10.10;;;6.90;99.90;;;;;;6366223;23;20008;-65
2022/12/23 09:32:59;;;;;;;14.93;9.85;;;6.70;99.90;;;;;;6415045;23;19997;-67
2022/12/23 09:35:30;;;;;;;19.55;10.20;;;6.60;99.90;;;;;;6392423;23;20234;-66
2022/12/23 09:38:01;;;;;;;28.88;13.77;;;6.60;99.90;;;;;;6414720;23;20007;-67
2022/12/23 09:40:36;;;;;;;22.23;12.40;;;6.80;99.90;;;;;;6390645;23;19997;-68
2022/12/23 09:43:28;;;;;;;19.23;11.10;;;6.90;99.90;;;;;;6414704;23;20001;-68
2022/12/23 09:46:18;;;;;;;16.80;10.65;;;6.80;99.90;;;;;;6366027;23;20362;-65
2022/12/23 09:48:52;;;;;;;18.63;10.40;;;6.90;99.90;;;;;;6391632;23;20023;-69
2022/12/23 09:51:28;;;;;;;18.67;11.13;;;6.90;99.90;;;;;;6365380;23;20004;-66
2022/12/23 09:54:08;;;;;;;18.90;10.30;;;6.90;99.90;;;;;;6389723;23;20390;-68
2022/12/23 09:56:48;;;;;;;20.83;11.52;;;6.90;99.90;;;;;;6389647;23;20482;-68
2022/12/23 09:59:42;;;;;;;20.90;11.57;;;7.00;99.90;;;;;;6365635;23;20005;-68
2022/12/23 10:02:44;;;;;;;18.63;11.38;;;6.90;99.90;;;;;;6365055;23;20578;-65
2022/12/23 10:06:01;;;;;;;17.85;10.48;;;6.90;99.90;;;;;;6373053;23;20017;-69
2022/12/23 10:08:40;;;;;;;16.67;10.75;;;6.90;99.90;;;;;;6364547;23;20048;-66
2022/12/23 10:11:40;;;;;;;16.52;11.07;;;7.10;99.90;;;;;;6388953;23;20048;-66
2022/12/23 10:14:27;;;;;;;20.27;11.60;;;7.40;99.90;;;;;;6381802;23;20007;-68
2022/12/23 10:17:17;;;;;;;19.55;12.18;;;7.50;99.90;;;;;;6389715;23;20019;-65
2022/12/23 10:19:54;;;;;;;15.13;9.60;;;7.60;99.90;;;;;;6389234;23;20003;-63
2022/12/23 10:22:41;;;;;;;15.57;10.05;;;7.80;99.90;;;;;;6391870;23;20389;-64
2022/12/23 10:25:33;;;;;;;17.63;11.35;;;7.80;99.90;;;;;;6387679;23;19997;-67
2022/12/23 10:28:11;;;;;;;18.98;11.07;;;7.70;99.90;;;;;;6390706;23;20328;-68
2022/12/23 10:30:53;;;;;;;29.77;10.70;;;7.90;99.90;;;;;;6378535;22;20115;-65
2022/12/23 10:34:08;;;;;;;15.00;9.82;;;7.90;99.90;;;;;;6346247;23;20077;-68
2022/12/23 10:36:48;;;;;;;;;;;7.90;99.90;;;;;;6368316;23;20001;-66
2022/12/23 10:39:45;;;;;;;16.67;10.43;;;8.10;99.90;;;;;;6389204;23;19908;-65
2022/12/23 10:42:28;;;;;;;17.40;10.77;;;8.20;99.90;;;;;;6390755;23;19997;-68
2022/12/23 10:45:19;;;;;;;18.00;10.75;;;7.90;99.90;;;;;;6350884;23;20481;-65
2022/12/23 10:48:05;;;;;;;15.05;10.00;;;7.90;99.90;;;;;;6400056;23;19992;-65
2022/12/23 10:50:44;;;;;;;13.75;9.68;;;8.00;99.90;;;;;;6362355;23;20001;-66
2022/12/23 10:53:26;;;;;;;15.35;9.48;;;8.10;99.90;;;;;;6391340;23;20027;-62
2022/12/23 10:56:04;;;;;;;14.82;10.18;;;8.30;99.90;;;;;;6371218;23;20447;-63
2022/12/23 10:58:40;;;;;;;15.63;9.45;;;8.30;99.90;;;;;;6393766;23;20240;-65
2022/12/23 11:01:14;;;;;;;14.27;10.00;;;8.40;99.90;;;;;;6391744;23;20074;-67
2022/12/23 11:03:53;;;;;;;13.30;8.77;;;8.30;99.90;;;;;;6431684;23;20001;-68
2022/12/23 11:06:25;;;;;;;13.98;9.02;;;8.30;99.90;;;;;;6363124;23;20076;-65
2022/12/23 11:09:01;;;;;;;15.20;9.93;;;8.40;99.90;;;;;;6400508;23;20061;-67
2022/12/23 11:12:01;;;;;;;14.00;9.25;;;8.40;99.90;;;;;;6398476;23;20064;-66
2022/12/23 11:14:51;;;;;;;13.23;8.48;;;8.50;99.90;;;;;;6366244;23;20009;-68
2022/12/23 11:17:34;;;;;;;13.27;8.98;;;8.50;99.90;;;;;;6393704;23;20007;-68
2022/12/23 11:20:12;;;;;;;15.38;9.43;;;8.60;99.90;;;;;;6391583;23;20001;-67
2022/12/23 11:22:54;;;;;;;13.82;9.07;;;8.70;99.90;;;;;;6392474;23;19996;-66
2022/12/23 11:25:42;;;;;;;16.98;11.10;;;9.00;99.90;;;;;;6366110;23;20012;-66
2022/12/23 11:28:21;;;;;;;16.50;9.65;;;9.70;99.90;;;;;;6393277;23;20049;-66
2022/12/23 11:31:08;;;;;;;13.88;9.05;;;10.50;99.90;;;;;;6401681;23;20015;-65
2022/12/23 11:33:51;;;;;;;11.18;7.60;;;11.70;99.90;;;;;;6413405;23;20007;-71
2022/12/23 11:36:26;;;;;;;12.30;8.00;;;11.90;38.00;;;;;;6402965;23;20016;-67
2022/12/23 11:38:58;;;;;;;12.68;8.40;;;11.90;73.60;;;;;;6399687;22;20021;-67
2022/12/23 11:41:39;;;;;;;16.48;8.70;;;12.20;8.00;;;;;;6388194;23;20177;-67
2022/12/23 11:44:31;;;;;;;12.60;8.88;;;12.50;1.00;;;;;;6366634;23;20481;-65
2022/12/23 11:47:21;;;;;;;11.65;7.80;;;12.70;1.00;;;;;;6391231;23;20011;-69
2022/12/23 11:50:01;;;;;;;14.80;8.30;;;12.40;1.00;;;;;;6391581;23;20056;-66
2022/12/23 11:52:35;;;;;;;12.45;8.82;;;12.10;1.00;;;;;;6412627;23;20008;-68
2022/12/23 11:55:24;;;;;;;14.43;9.20;;;11.70;1.00;;;;;;6399460;22;19993;-66
2022/12/23 11:57:58;;;;;;;14.60;8.68;;;10.90;1.00;;;;;;6363467;23;20019;-67
2022/12/23 12:00:42;;;;;;;15.82;9.05;;;11.30;1.00;;;;;;6365036;23;20323;-65
2022/12/23 12:03:20;;;;;;;14.25;8.55;;;12.00;1.00;;;;;;6363861;23;20013;-66
2022/12/23 12:06:00;;;;;;;12.77;7.97;;;11.10;1.00;;;;;;6398412;22;20008;-69
2022/12/23 12:08:39;;;;;;;13.68;8.95;;;11.30;90.50;;;;;;6390080;23;20170;-68
2022/12/23 12:11:22;;;;;;;13.70;8.70;;;11.40;91.90;;;;;;6413066;23;20056;-68
2022/12/23 12:14:00;;;;;;;12.18;8.43;;;11.90;67.80;;;;;;6389858;23;20054;-69
2022/12/23 12:16:40;;;;;;;13.90;9.20;;;11.70;1.00;;;;;;6365116;23;20019;-70
2022/12/23 12:19:22;;;;;;;16.35;10.15;;;11.60;4.10;;;;;;6387842;23;20068;-67
2022/12/23 12:21:58;;;;;;;11.38;8.95;;;11.90;99.90;;;;;;6364493;23;20001;-66
2022/12/23 12:24:40;;;;;;;12.50;8.93;;;11.80;1.00;;;;;;6390470;23;20001;-67
2022/12/23 12:27:17;;;;;;;15.02;8.93;;;12.20;8.80;;;;;;6389166;23;20266;-68
2022/12/23 12:30:03;;;;;;;13.93;9.50;;;12.30;15.80;;;;;;6364160;23;20012;-68
2022/12/23 12:32:34;;;;;;;11.23;8.60;;;12.10;1.00;;;;;;6363807;23;20540;-66
2022/12/23 12:35:13;;;;;;;14.70;9.13;;;11.70;53.50;;;;;;6390329;23;20048;-67
2022/12/23 12:38:12;;;;;;;14.55;9.43;;;11.50;59.50;;;;;;6389803;23;20005;-66
2022/12/23 12:40:56;;;;;;;14.27;9.57;;;11.40;99.90;;;;;;6375842;22;20027;-68
2022/12/23 12:43:33;;;;;;;15.10;9.90;;;11.70;11.50;;;;;;6382389;23;20001;-67
2022/12/23 12:46:34;;;;;;;14.20;9.20;;;11.40;93.20;;;;;;6413624;23;20016;-65
2022/12/23 12:49:21;;;;;;;13.30;8.45;;;11.80;99.90;;;;;;6390004;23;20035;-71
2022/12/23 12:52:02;;;;;;;6.00;4.70;;;12.10;62.20;;;;;;6406709;22;20059;-65
2022/12/23 12:54:41;;;;;;;3.67;3.10;;;12.10;99.90;;;;;;6364775;23;20019;-64
2022/12/23 12:57:17;;;;;;;2.33;1.70;;;12.10;99.90;;;;;;6386633;23;20534;-67
2022/12/23 12:59:59;;;;;;;1.88;1.20;;;12.20;99.90;;;;;;6365862;23;20035;-67
2022/12/23 13:02:55;;;;;;;1.10;1.00;;;12.20;99.90;;;;;;6392088;23;20069;-66
2022/12/23 13:05:31;;;;;;;1.52;1.20;;;12.20;99.90;;;;;;6350663;23;20005;-64
2022/12/23 13:08:21;;;;;;;3.25;2.10;;;12.20;99.90;;;;;;6383528;23;20000;-68
2022/12/23 13:10:59;;;;;;;1.30;1.20;;;12.30;99.90;;;;;;6392455;23;20040;-67
2022/12/23 13:13:45;;;;;;;1.23;1.13;;;12.30;99.90;;;;;;6364726;23;20052;-69
2022/12/23 13:16:49;;;;;;;1.42;1.33;;;12.40;99.90;;;;;;6391800;23;19993;-69
2022/12/23 13:19:27;;;;;;;0.90;0.90;;;12.70;99.90;;;;;;6365027;23;20005;-65
2022/12/23 13:22:10;;;;;;;1.92;1.38;;;13.40;99.90;;;;;;6366995;23;20052;-66
2022/12/23 13:25:14;;;;;;;0.95;0.90;;;13.80;99.90;;;;;;6365834;23;20016;-68
2022/12/23 13:27:49;;;;;;;1.63;1.53;;;14.10;45.50;;;;;;6367218;23;20067;-67
2022/12/23 13:30:23;;;;;;;1.50;1.40;;;14.30;37.20;;;;;;6390434;23;20226;-67
2022/12/23 13:33:24;;;;;;;1.23;1.23;;;14.30;42.70;;;;;;6365054;23;20057;-67
2022/12/23 13:36:25;;;;;;;1.50;1.20;;;14.10;63.30;;;;;;6364959;23;19989;-66
2022/12/23 13:39:14;;;;;;;1.70;1.60;;;13.80;99.90;;;;;;6364774;23;20069;-67
2022/12/23 13:41:52;;;;;;;1.40;1.30;;;13.40;99.90;;;;;;6365118;23;20035;-65
2022/12/23 13:44:24;;;;;;;2.97;1.08;;;13.50;99.90;;;;;;6390332;23;20004;-70
2022/12/23 13:47:10;;;;;;;1.10;1.10;;;13.50;99.90;;;;;;6363592;23;20005;-68
2022/12/23 13:50:19;;;;;;;1.90;1.20;;;13.50;99.90;;;;;;6364471;23;20023;-67
2022/12/23 13:53:22;;;;;;;1.65;1.55;;;13.60;99.90;;;;;;6345244;23;20019;-68
2022/12/23 13:56:07;;;;;;;1.60;1.50;;;13.80;99.90;;;;;;6361680;23;20020;-68
2022/12/23 13:58:40;;;;;;;1.40;1.30;;;14.00;49.20;;;;;;6388931;23;20009;-67
2022/12/23 14:01:14;;;;;;;1.02;0.93;;;14.10;30.00;;;;;;6362592;23;20589;-67
2022/12/23 14:03:48;;;;;;;1.00;1.00;;;14.00;36.10;;;;;;6389176;23;20300;-67
2022/12/23 14:06:23;;;;;;;1.05;0.95;;;13.70;14.10;;;;;;6399378;22;20013;-65
2022/12/23 14:08:56;;;;;;;10.25;7.55;;;13.50;80.60;;;;;;6391369;23;20015;-68
2022/12/23 14:11:30;;;;;;;10.88;8.65;;;13.00;29.70;;;;;;6363907;23;20001;-68
2022/12/23 14:14:05;;;;;;;12.25;8.57;;;11.70;99.90;;;;;;6413302;23;20072;-65
2022/12/23 14:16:48;;;;;;;13.68;8.93;;;10.80;99.90;;;;;;6363581;23;20001;-66